Time;durP1;ratioP1;P1;durP2;ratioP2;P2;SDS_P1;SDS_P2;PMS_P1;PMS_P2;Temp;Humidity;BMP_temperature;BMP_pressure;BME280_temperature;BME280_humidity;BME280_pressure;Samples;Min_cycle;Max_cycle;Signal;HPM_P1;HPM_P2
2022/04/03 00:00:33;;;;;;;2.58;1.52;;;;;;;14.10;48.85;98507.69;6273213;22;19995;-88
2022/04/03 00:03:04;;;;;;;1.80;1.23;;;;;;;14.10;48.71;98510.34;6274462;22;20028;-89
2022/04/03 00:05:30;;;;;;;2.92;1.10;;;;;;;13.85;48.88;98473.31;6274885;22;20403;-89
2022/04/03 00:07:55;;;;;;;1.00;0.90;;;;;;;13.22;48.92;98373.75;6274735;22;19996;-88
2022/04/03 00:10:22;;;;;;;2.38;0.90;;;;;;;13.34;48.87;98365.88;6276686;22;20000;-89
2022/04/03 00:12:48;;;;;;;2.85;1.13;;;;;;;12.69;48.73;98284.31;6275069;22;20349;-89
2022/04/03 00:15:14;;;;;;;1.63;1.13;;;;;;;14.02;48.81;98490.22;6275355;22;20011;-89
2022/04/03 00:17:41;;;;;;;1.25;1.10;;;;;;;13.67;48.84;98460.91;6274568;22;20082;-89
2022/04/03 00:20:08;;;;;;;1.10;0.88;;;;;;;14.21;48.79;98520.22;6274982;22;20000;-89
2022/04/03 00:22:34;;;;;;;1.75;1.38;;;;;;;14.20;48.77;98522.06;6275079;22;20000;-89
2022/04/03 00:24:59;;;;;;;1.63;1.30;;;;;;;13.58;48.97;98415.34;6275049;22;19995;-89
2022/04/03 00:27:25;;;;;;;2.63;1.42;;;;;;;13.85;48.59;98468.03;6274797;22;20097;-89
2022/04/03 00:29:50;;;;;;;1.40;1.13;;;;;;;12.47;48.83;98242.59;6274512;22;20489;-89
2022/04/03 00:32:16;;;;;;;1.23;1.10;;;;;;;14.26;48.73;98533.63;6274886;22;20002;-89
2022/04/03 00:34:42;;;;;;;1.33;1.23;;;;;;;13.38;48.74;98392.72;6275321;22;20000;-89
2022/04/03 00:37:07;;;;;;;1.63;1.40;;;;;;;13.26;48.69;98396.13;6274633;22;20072;-89
2022/04/03 00:39:33;;;;;;;3.17;1.27;;;;;;;13.40;48.55;98435.78;6274860;22;20472;-89
2022/04/03 00:41:58;;;;;;;5.82;3.40;;;;;;;13.64;48.89;98456.06;6274480;22;20084;-89
2022/04/03 00:44:24;;;;;;;9.50;5.97;;;;;;;14.17;49.13;98535.78;6274541;22;20459;-89
2022/04/03 00:46:50;;;;;;;4.43;2.47;;;;;;;14.16;49.07;98531.50;6274597;22;20003;-89
2022/04/03 00:49:16;;;;;;;2.83;2.30;;;;;;;14.09;49.21;98525.44;6274510;22;20042;-89
2022/04/03 00:51:41;;;;;;;2.63;2.35;;;;;;;13.85;49.05;98494.56;6275196;22;20049;-89
2022/04/03 00:54:11;;;;;;;1.70;1.60;;;;;;;12.88;49.32;98356.63;6274377;22;20078;-90
2022/04/03 00:56:37;;;;;;;2.70;2.03;;;;;;;13.95;49.32;98538.09;6274368;22;20004;-89
2022/04/03 00:59:03;;;;;;;3.08;1.83;;;;;;;13.47;49.46;98463.00;6274449;22;19996;-89
2022/04/03 01:01:29;;;;;;;3.22;2.08;;;;;;;12.69;49.82;98349.72;6274280;22;20023;-89
2022/04/03 01:03:54;;;;;;;4.13;2.53;;;;;;;13.53;50.01;98493.94;6274473;22;20449;-89
2022/04/03 01:06:20;;;;;;;2.95;2.10;;;;;;;13.45;50.00;98486.28;6275281;22;20114;-90
2022/04/03 01:08:45;;;;;;;4.78;2.22;;;;;;;13.16;50.16;98450.69;6274349;22;20057;-89
2022/04/03 01:11:12;;;;;;;4.20;1.95;;;;;;;13.39;50.20;98508.38;6274363;22;20330;-89
2022/04/03 01:13:52;;;;;;;2.67;1.92;;;;;;;13.02;50.70;98479.97;6274369;22;20004;-89
2022/04/03 01:16:18;;;;;;;2.92;1.55;;;;;;;13.04;50.49;98477.09;6275622;22;19996;-89
2022/04/03 01:18:43;;;;;;;2.00;1.65;;;;;;;13.48;50.91;98563.56;6274215;22;19999;-89
2022/04/03 01:21:09;;;;;;;1.33;1.23;;;;;;;12.99;50.66;98472.47;6274371;22;20000;-89
2022/04/03 01:23:34;;;;;;;2.20;1.60;;;;;;;13.58;50.75;98560.38;6274611;22;20011;-89
2022/04/03 01:26:00;;;;;;;3.08;1.83;;;;;;;13.00;50.62;98441.47;6274202;22;20003;-90
2022/04/03 01:28:26;;;;;;;1.40;1.30;;;;;;;13.51;50.38;98502.13;6274145;22;20061;-89
2022/04/03 01:30:51;;;;;;;1.60;1.50;;;;;;;12.69;50.45;98376.19;6274527;22;20512;-89
2022/04/03 01:33:17;;;;;;;1.98;1.40;;;;;;;13.80;50.39;98540.31;6273937;22;19996;-89
2022/04/03 01:35:44;;;;;;;3.38;1.50;;;;;;;13.56;50.20;98482.88;6273789;22;19999;-89
2022/04/03 01:38:09;;;;;;;2.08;1.63;;;;;;;13.86;50.27;98536.78;6273845;22;19996;-89
2022/04/03 01:40:35;;;;;;;3.10;1.40;;;;;;;12.65;50.32;98338.75;6273955;22;20004;-89
2022/04/03 01:43:09;;;;;;;1.77;1.30;;;;;;;13.85;50.10;98511.28;6274144;22;20072;-89
2022/04/03 01:45:39;;;;;;;5.68;1.70;;;;;;;13.70;50.54;98475.56;6274089;22;20003;-89
2022/04/03 01:48:06;;;;;;;3.00;1.65;;;;;;;13.86;50.25;98489.03;6274115;22;20000;-89
2022/04/03 01:50:32;;;;;;;1.73;1.15;;;;;;;13.87;50.09;98473.91;6274064;22;20010;-89
2022/04/03 01:52:58;;;;;;;1.90;1.40;;;;;;;12.34;50.01;98259.44;6274018;22;19999;-90
2022/04/03 01:55:25;;;;;;;4.35;1.33;;;;;;;12.97;50.30;98334.09;6273641;22;20003;-89
2022/04/03 01:57:51;;;;;;;3.00;1.80;;;;;;;13.83;50.26;98470.09;6274053;22;20441;-89
2022/04/03 02:00:17;;;;;;;2.80;1.40;;;;;;;12.87;50.60;98327.69;6273400;22;20000;-89
2022/04/03 02:02:43;;;;;;;3.25;1.65;;;;;;;13.67;50.45;98448.47;6273254;22;20089;-89
2022/04/03 02:05:09;;;;;;;2.28;1.60;;;;;;;13.35;50.59;98415.19;6273654;22;20020;-88
2022/04/03 02:07:35;;;;;;;4.70;1.92;;;;;;;13.78;50.81;98451.38;6273603;22;20007;-89
2022/04/03 02:10:03;;;;;;;1.88;1.60;;;;;;;13.09;50.65;98351.88;6273932;22;19995;-89
2022/04/03 02:12:28;;;;;;;1.60;1.20;;;;;;;13.76;50.51;98445.50;6273851;22;20003;-89
2022/04/03 02:14:54;;;;;;;2.22;1.90;;;;;;;12.64;50.53;98280.72;6275134;22;19996;-90
2022/04/03 02:17:19;;;;;;;3.72;2.03;;;;;;;12.95;50.59;98332.69;6273794;22;20440;-90
2022/04/03 02:19:45;;;;;;;6.22;1.88;;;;;;;13.38;50.49;98395.38;6273730;22;20071;-89
2022/04/03 02:22:10;;;;;;;2.40;1.90;;;;;;;13.34;50.87;98410.94;6275287;22;20038;-89
2022/04/03 02:24:36;;;;;;;3.25;1.52;;;;;;;12.72;50.69;98302.41;6273954;22;20031;-89
2022/04/03 02:27:01;;;;;;;2.72;1.65;;;;;;;13.01;50.73;98377.66;6273915;22;20000;-89
2022/04/03 02:29:27;;;;;;;2.22;1.75;;;;;;;12.82;50.61;98359.34;6273669;22;20478;-89
2022/04/03 02:31:52;;;;;;;3.58;1.75;;;;;;;12.91;50.74;98397.75;6274019;22;19991;-89
2022/04/03 02:34:18;;;;;;;3.95;2.20;;;;;;;13.51;50.66;98467.66;6273932;22;20049;-89
2022/04/03 02:36:44;;;;;;;5.07;2.38;;;;;;;12.62;51.07;98360.34;6274512;22;20000;-89
2022/04/03 02:39:12;;;;;;;5.68;2.15;;;;;;;12.89;50.90;98382.09;6273435;22;20026;-89
2022/04/03 02:41:38;;;;;;;2.55;2.35;;;;;;;13.10;50.89;98409.97;6299177;22;20012;-89
2022/04/03 02:44:04;;;;;;;3.95;2.97;;;;;;;13.49;50.82;98461.75;6273400;22;20402;-89
2022/04/03 02:46:30;;;;;;;4.72;3.53;;;;;;;13.24;50.93;98443.25;6273597;22;20000;-89
2022/04/03 02:48:56;;;;;;;3.33;2.47;;;;;;;12.79;50.92;98359.78;6273730;22;19999;-89
2022/04/03 02:51:21;;;;;;;3.70;2.53;;;;;;;12.78;50.90;98400.56;6273143;22;20400;-89
2022/04/03 02:53:47;;;;;;;5.72;3.30;;;;;;;12.64;51.32;98387.44;6288629;22;20010;-89
2022/04/03 02:56:12;;;;;;;3.72;3.03;;;;;;;12.34;51.65;98368.78;6291520;22;20057;-89
2022/04/03 02:58:38;;;;;;;5.13;3.58;;;;;;;12.73;51.53;98425.84;6274453;22;20003;-89
2022/04/03 03:01:04;;;;;;;2.70;2.40;;;;;;;12.81;51.48;98458.38;6275394;22;19996;-89
2022/04/03 03:03:29;;;;;;;4.03;3.08;;;;;;;12.47;51.90;98419.97;6273515;22;20023;-90
2022/04/03 03:05:55;;;;;;;4.28;3.28;;;;;;;12.97;51.76;98493.06;6273663;22;20007;-90
2022/04/03 03:08:20;;;;;;;2.85;2.53;;;;;;;12.64;51.93;98460.78;6273466;22;20050;-89
2022/04/03 03:10:46;;;;;;;2.75;2.20;;;;;;;12.65;51.98;98473.81;6273326;22;20004;-90
2022/04/03 03:13:12;;;;;;;3.33;2.53;;;;;;;12.48;52.15;98446.22;6299153;22;20000;-89
2022/04/03 03:15:39;;;;;;;3.83;2.00;;;;;;;12.35;51.80;98422.50;6273031;22;20000;-90
2022/04/03 03:18:04;;;;;;;3.47;2.10;;;;;;;12.17;52.30;98415.34;6273275;22;20003;-89
2022/04/03 03:20:30;;;;;;;2.33;2.13;;;;;;;12.09;52.04;98397.09;6273322;22;20354;-89
2022/04/03 03:22:55;;;;;;;2.58;2.00;;;;;;;11.31;52.33;98311.94;6273157;22;20014;-89
2022/04/03 03:25:21;;;;;;;3.03;2.47;;;;;;;11.72;52.33;98343.19;6273733;22;20000;-90
2022/04/03 03:27:46;;;;;;;2.20;2.00;;;;;;;12.29;52.28;98442.72;6273317;22;20007;-89
2022/04/03 03:30:12;;;;;;;4.07;1.80;;;;;;;11.66;52.67;98344.03;6273458;22;20002;-89
2022/04/03 03:32:37;;;;;;;2.50;1.92;;;;;;;12.12;52.17;98409.06;6273462;22;20560;-90
2022/04/03 03:35:04;;;;;;;2.10;1.90;;;;;;;12.06;51.93;98408.91;6273619;22;20006;-90
2022/04/03 03:37:29;;;;;;;3.00;2.08;;;;;;;12.71;51.86;98482.72;6273375;22;20071;-89
2022/04/03 03:39:55;;;;;;;4.63;2.92;;;;;;;11.80;51.89;98366.75;6274873;22;20125;-89
2022/04/03 03:42:21;;;;;;;6.35;2.90;;;;;;;12.36;51.94;98432.06;6275423;22;20057;-90
2022/04/03 03:44:46;;;;;;;3.33;2.15;;;;;;;11.91;51.72;98355.50;6275576;22;19999;-90
2022/04/03 03:47:12;;;;;;;2.80;1.95;;;;;;;11.76;51.81;98325.88;6275408;22;20004;-89
2022/04/03 03:49:38;;;;;;;3.13;2.13;;;;;;;12.89;51.81;98492.53;6275367;22;20404;-90
2022/04/03 03:52:04;;;;;;;3.55;2.13;;;;;;;12.80;51.92;98488.56;6275928;22;20018;-90
2022/04/03 03:54:29;;;;;;;5.55;2.40;;;;;;;12.91;52.29;98498.44;6288463;22;19999;-90
2022/04/03 03:56:55;;;;;;;4.57;2.30;;;;;;;12.30;51.81;98399.34;6292421;22;20022;-88
2022/04/03 03:59:20;;;;;;;4.30;2.63;;;;;;;12.51;51.75;98429.09;6292521;22;20003;-89
2022/04/03 04:01:46;;;;;;;8.18;3.40;;;;;;;12.61;51.96;98440.81;6292143;22;20011;-89
2022/04/03 04:04:11;;;;;;;6.32;3.28;;;;;;;12.54;51.45;98442.72;6286209;22;20411;-89
2022/04/03 04:06:37;;;;;;;5.38;3.58;;;;;;;12.90;52.05;98518.00;6276172;22;19995;-89
2022/04/03 04:09:03;;;;;;;5.60;4.13;;;;;;;12.88;52.33;98498.88;6275714;22;20507;-90
2022/04/03 04:11:28;;;;;;;4.13;3.15;;;;;;;12.26;52.03;98414.03;6275253;22;19999;-90
2022/04/03 04:13:54;;;;;;;5.15;3.55;;;;;;;11.85;52.41;98356.34;6275391;22;20357;-89
2022/04/03 04:16:19;;;;;;;6.75;5.00;;;;;;;11.90;52.24;98382.16;6275218;22;19996;-90
2022/04/03 04:18:45;;;;;;;6.80;4.97;;;;;;;11.82;52.36;98370.00;6275257;22;20051;-89
2022/04/03 04:21:11;;;;;;;8.85;5.72;;;;;;;11.89;52.15;98375.22;6274909;22;19995;-90
2022/04/03 04:23:37;;;;;;;8.23;5.40;;;;;;;12.70;52.41;98481.09;6274933;22;20018;-89
2022/04/03 04:26:03;;;;;;;8.65;5.65;;;;;;;12.36;52.12;98437.38;6274641;22;20086;-89
2022/04/03 04:28:28;;;;;;;6.88;4.53;;;;;;;12.03;52.29;98359.06;6274798;22;20034;-89
2022/04/03 04:30:56;;;;;;;8.45;4.82;;;;;;;11.94;52.57;98383.38;6274563;22;20452;-89
2022/04/03 04:33:22;;;;;;;7.15;4.97;;;;;;;12.58;52.43;98472.22;6274754;22;20330;-89
2022/04/03 04:35:47;;;;;;;7.68;5.20;;;;;;;12.61;52.43;98464.66;6274630;22;20084;-89
2022/04/03 04:38:13;;;;;;;5.88;5.28;;;;;;;12.15;52.21;98406.81;6274616;22;20079;-90
2022/04/03 04:40:38;;;;;;;7.38;4.63;;;;;;;12.46;52.37;98464.16;6274366;22;19999;-90
2022/04/03 04:43:04;;;;;;;7.47;4.88;;;;;;;12.86;52.56;98522.13;6274193;22;20004;-90
2022/04/03 04:45:29;;;;;;;7.18;6.05;;;;;;;11.76;52.31;98358.41;6274498;22;20027;-89
2022/04/03 04:48:01;;;;;;;18.08;8.95;;;;;;;12.21;52.78;98461.50;6274547;22;20440;-90
2022/04/03 04:50:28;;;;;;;14.63;9.90;;;;;;;12.38;52.30;98452.00;6275683;22;20006;-90
2022/04/03 04:52:54;;;;;;;16.13;9.63;;;;;;;12.85;51.93;98513.34;6274237;22;20440;-89
2022/04/03 04:55:20;;;;;;;9.20;7.28;;;;;;;11.85;51.73;98388.06;6276134;22;19998;-89
2022/04/03 04:57:56;;;;;;;11.85;8.00;;;;;;;12.68;52.04;98510.44;6274421;22;20353;-89
2022/04/03 05:00:25;;;;;;;12.10;8.50;;;;;;;11.68;52.27;98323.47;6274445;22;20094;-89
2022/04/03 05:02:51;;;;;;;11.32;7.80;;;;;;;13.00;52.12;98537.66;6274302;22;20039;-89
2022/04/03 05:05:18;;;;;;;9.80;7.90;;;;;;;12.99;52.53;98538.69;6275995;22;19995;-89
2022/04/03 05:07:45;;;;;;;12.55;9.02;;;;;;;11.92;52.35;98403.94;6276003;22;20003;-90
2022/04/03 05:10:15;;;;;;;13.50;9.95;;;;;;;12.43;51.96;98458.50;6274388;22;20007;-90
2022/04/03 05:12:42;;;;;;;16.35;10.75;;;;;;;12.32;52.37;98444.94;6274388;22;19999;-90
2022/04/03 05:15:11;;;;;;;15.93;9.45;;;;;;;12.78;52.13;98540.94;6274319;22;20460;-89
2022/04/03 05:17:40;;;;;;;13.70;10.60;;;;;;;12.24;52.42;98461.09;6274390;22;19999;-89
2022/04/03 05:20:06;;;;;;;12.13;9.38;;;;;;;12.12;51.98;98459.34;6274219;22;20155;-89
2022/04/03 05:22:31;;;;;;;12.93;9.98;;;;;;;11.65;52.29;98432.31;6275417;22;20083;-89
2022/04/03 05:24:57;;;;;;;8.77;7.82;;;;;;;12.39;52.38;98554.22;6274323;22;20003;-89
2022/04/03 05:27:22;;;;;;;9.25;7.00;;;;;;;12.69;52.54;98586.22;6300315;22;20004;-90
2022/04/03 05:29:48;;;;;;;9.55;6.00;;;;;;;12.53;52.65;98549.66;6273831;22;20327;-89
2022/04/03 05:32:14;;;;;;;9.70;6.88;;;;;;;12.05;52.36;98478.72;6273994;22;20003;-90
2022/04/03 05:34:40;;;;;;;7.68;6.60;;;;;;;12.38;52.12;98534.06;6274084;22;19996;-89
2022/04/03 05:37:06;;;;;;;10.65;6.28;;;;;;;12.50;52.38;98549.25;6274051;22;20029;-89
2022/04/03 05:39:32;;;;;;;9.35;6.20;;;;;;;11.76;52.35;98435.09;6274099;22;20010;-90
2022/04/03 05:41:57;;;;;;;6.40;5.30;;;;;;;11.63;52.31;98431.72;6273964;22;20082;-89
2022/04/03 05:44:24;;;;;;;8.93;6.43;;;;;;;12.69;52.45;98580.94;6273944;22;20031;-90
2022/04/03 05:46:51;;;;;;;8.57;5.75;;;;;;;12.71;52.34;98596.59;6274071;22;20022;-89
2022/04/03 05:49:17;;;;;;;11.15;6.72;;;;;;;12.64;51.91;98599.28;6274004;22;19995;-89
2022/04/03 05:51:43;;;;;;;9.98;6.53;;;;;;;12.16;52.27;98564.53;6274292;22;19992;-90
2022/04/03 05:54:08;;;;;;;16.70;8.55;;;;;;;12.00;52.27;98541.22;6274023;22;20008;-90
2022/04/03 05:56:34;;;;;;;6.10;4.72;;;;;;;10.91;52.26;98329.81;6274038;22;20000;-89
2022/04/03 05:59:00;;;;;;;7.68;4.45;;;;;;;12.27;52.60;98571.00;6273841;22;20038;-89
2022/04/03 06:01:26;;;;;;;7.00;3.83;;;;;;;12.43;52.40;98574.97;6273317;22;20153;-89
2022/04/03 06:03:52;;;;;;;7.40;4.50;;;;;;;12.19;52.62;98547.44;6274087;22;20025;-90
2022/04/03 06:06:18;;;;;;;6.32;5.10;;;;;;;12.71;52.28;98609.84;6299844;22;20393;-89
2022/04/03 06:08:43;;;;;;;8.73;5.05;;;;;;;11.89;52.47;98476.56;6273748;22;20010;-90
2022/04/03 06:11:10;;;;;;;7.57;6.20;;;;;;;12.44;52.10;98560.72;6273408;22;20057;-90
2022/04/03 06:13:36;;;;;;;8.50;6.80;;;;;;;12.89;52.37;98607.25;6273909;22;20000;-90
2022/04/03 06:16:02;;;;;;;17.20;10.30;;;;;;;12.82;52.19;98611.00;6273593;22;19996;-90
2022/04/03 06:18:28;;;;;;;19.10;13.32;;;;;;;12.90;52.50;98632.72;6273746;22;20007;-89
2022/04/03 06:20:53;;;;;;;22.25;16.38;;;;;;;12.26;52.03;98509.31;6274229;22;20070;-90
2022/04/03 06:23:20;;;;;;;10.57;8.60;;;;;;;13.14;52.01;98628.47;6273761;22;20007;-89
2022/04/03 06:25:49;;;;;;;15.27;9.50;;;;;;;13.24;51.98;98626.16;6275272;22;20015;-89
2022/04/03 06:28:15;;;;;;;11.77;8.23;;;;;;;12.58;51.85;98533.94;6273593;22;20000;-89
2022/04/03 06:30:40;;;;;;;8.40;5.70;;;;;;;12.90;51.52;98539.19;6273696;22;20057;-89
2022/04/03 06:33:06;;;;;;;8.10;5.95;;;;;;;13.13;51.32;98570.38;6273433;22;19995;-89
2022/04/03 06:35:32;;;;;;;16.02;9.98;;;;;;;12.90;51.33;98534.72;6273672;22;20061;-89
2022/04/03 06:37:57;;;;;;;11.30;8.48;;;;;;;13.15;51.05;98557.72;6273580;22;20007;-89
2022/04/03 06:40:23;;;;;;;11.20;6.88;;;;;;;12.81;50.98;98509.53;6273601;22;20440;-89
2022/04/03 06:42:50;;;;;;;7.75;6.38;;;;;;;13.20;51.04;98579.91;6273267;22;19995;-89
2022/04/03 06:45:15;;;;;;;5.78;4.20;;;;;;;13.82;50.98;98686.03;6273079;22;20059;-89
2022/04/03 06:47:42;;;;;;;9.80;6.97;;;;;;;13.92;50.61;98646.53;6273186;22;20000;-89
2022/04/03 06:50:08;;;;;;;16.00;10.30;;;;;;;13.80;49.74;98649.09;6273379;22;20019;-89
2022/04/03 06:52:36;;;;;;;8.43;4.72;;;;;;;13.88;49.62;98662.09;6273330;22;20003;-89
2022/04/03 06:55:02;;;;;;;8.93;5.10;;;;;;;13.91;48.76;98658.97;6273209;22;20005;-89
2022/04/03 06:57:27;;;;;;;8.23;5.65;;;;;;;13.39;48.22;98578.13;6273226;22;20034;-89
2022/04/03 06:59:53;;;;;;;4.28;3.05;;;;;;;13.84;48.03;98628.25;6299586;22;20008;-89
2022/04/03 07:02:18;;;;;;;5.50;3.03;;;;;;;13.27;47.14;98561.31;6273180;22;20027;-89
2022/04/03 07:04:45;;;;;;;3.55;2.47;;;;;;;13.54;46.16;98586.53;6273232;22;19999;-89
2022/04/03 07:07:10;;;;;;;3.30;2.70;;;;;;;14.16;44.98;98666.09;6299571;22;19999;-89
2022/04/03 07:09:40;;;;;;;2.03;1.48;;;;;;;14.26;44.51;98692.91;6273238;22;20031;-89
2022/04/03 07:12:06;;;;;;;2.70;1.38;;;;;;;14.28;43.93;98698.81;6273403;22;19992;-89
2022/04/03 07:14:31;;;;;;;3.90;2.40;;;;;;;12.78;43.90;98472.06;6272961;22;19995;-88
2022/04/03 07:16:56;;;;;;;1.80;1.52;;;;;;;13.47;43.67;98580.50;6273807;22;20377;-89
2022/04/03 07:19:22;;;;;;;7.57;1.58;;;;;;;13.78;43.41;98623.81;6275260;22;19992;-89
2022/04/03 07:21:47;;;;;;;2.45;1.50;;;;;;;13.51;42.72;98573.72;6272830;22;20045;-89
2022/04/03 07:24:13;;;;;;;2.70;2.20;;;;;;;13.90;41.97;98628.19;6272977;22;20007;-88
2022/04/03 07:26:38;;;;;;;1.85;1.30;;;;;;;14.00;41.72;98628.47;6273311;22;20006;-89
2022/04/03 07:29:04;;;;;;;2.08;1.10;;;;;;;14.35;41.42;98674.84;6299349;22;19999;-89
2022/04/03 07:31:29;;;;;;;26.92;14.82;;;;;;;13.16;40.87;98462.09;6273004;22;20025;-89
2022/04/03 07:33:55;;;;;;;4.13;2.15;;;;;;;14.40;40.80;98683.75;6273140;22;20074;-89
2022/04/03 07:36:21;;;;;;;1.75;1.35;;;;;;;14.11;40.08;98637.53;6273787;22;20004;-89
2022/04/03 07:38:47;;;;;;;4.20;1.30;;;;;;;13.67;40.42;98572.31;6273134;22;20023;-89
2022/04/03 07:41:12;;;;;;;2.38;1.48;;;;;;;13.79;40.10;98553.81;6272897;22;20452;-88
2022/04/03 07:43:38;;;;;;;3.28;1.20;;;;;;;14.92;39.72;98729.31;6273375;22;20071;-89
2022/04/03 07:46:04;;;;;;;2.67;1.10;;;;;;;14.12;39.52;98611.78;6273095;22;20396;-89
2022/04/03 07:48:29;;;;;;;5.32;1.85;;;;;;;13.45;39.52;98487.09;6272900;22;19999;-89
2022/04/03 07:50:55;;;;;;;2.55;1.27;;;;;;;14.39;39.60;98655.59;6273329;22;20000;-89
2022/04/03 07:53:20;;;;;;;1.45;1.00;;;;;;;14.27;39.35;98625.50;6272954;22;19999;-89
2022/04/03 07:55:46;;;;;;;1.50;1.10;;;;;;;14.53;39.11;98667.69;6272833;22;20068;-89
2022/04/03 07:58:12;;;;;;;4.90;1.42;;;;;;;14.72;38.83;98670.28;6273094;22;20082;-88
2022/04/03 08:00:37;;;;;;;2.95;1.55;;;;;;;14.44;39.06;98654.94;6273070;22;20007;-88
2022/04/03 08:03:03;;;;;;;2.13;1.88;;;;;;;14.50;38.99;98654.84;6273208;22;20082;-89
2022/04/03 08:05:28;;;;;;;4.25;1.88;;;;;;;14.05;38.49;98595.13;6272958;22;20526;-89
2022/04/03 08:07:55;;;;;;;2.25;1.05;;;;;;;14.87;38.63;98721.22;6273533;22;20004;-89
2022/04/03 08:10:21;;;;;;;2.53;1.30;;;;;;;14.48;38.68;98637.53;6273801;22;20082;-89
2022/04/03 08:12:48;;;;;;;1.60;1.17;;;;;;;14.48;38.63;98638.34;6273233;22;20023;-88
2022/04/03 08:15:15;;;;;;;4.20;1.65;;;;;;;14.68;38.44;98634.59;6273413;22;20015;-88
2022/04/03 08:17:40;;;;;;;3.67;1.42;;;;;;;14.51;37.67;98624.59;6273392;22;20480;-89
2022/04/03 08:20:08;;;;;;;2.30;1.40;;;;;;;14.79;37.40;98647.09;6272937;22;20047;-88
2022/04/03 08:22:35;;;;;;;5.15;1.58;;;;;;;13.72;37.84;98457.59;6274540;22;20006;-87
2022/04/03 08:25:01;;;;;;;2.30;1.60;;;;;;;15.63;38.40;98756.94;6275104;22;19996;-89
2022/04/03 08:27:48;;;;;;;4.68;1.90;;;;;;;15.84;38.08;98737.75;6276761;22;20092;-88
2022/04/03 08:30:19;;;;;;;2.22;1.60;;;;;;;15.75;38.50;98691.22;6276400;22;20070;-88
2022/04/03 08:32:45;;;;;;;2.67;1.67;;;;;;;16.23;38.00;98746.88;6275221;22;19995;-88
2022/04/03 08:35:12;;;;;;;2.17;1.48;;;;;;;16.15;37.84;98732.06;6274915;22;20051;-87
2022/04/03 08:37:38;;;;;;;2.45;1.48;;;;;;;16.34;37.42;98746.03;6274870;22;20445;-88
2022/04/03 08:40:06;;;;;;;2.90;1.40;;;;;;;16.53;36.99;98744.88;6275082;22;20003;-88
2022/04/03 08:42:33;;;;;;;1.55;1.40;;;;;;;16.31;37.02;98703.06;6274982;22;20449;-88
2022/04/03 08:44:58;;;;;;;1.90;1.17;;;;;;;16.64;36.33;98723.75;6274917;22;20046;-89
2022/04/03 08:47:25;;;;;;;3.58;1.50;;;;;;;15.64;36.26;98614.88;6274742;22;19999;-88
2022/04/03 08:49:57;;;;;;;2.33;1.20;;;;;;;16.21;35.47;98711.66;6274747;22;20006;-88
2022/04/03 08:52:23;;;;;;;2.28;1.25;;;;;;;15.77;36.47;98636.72;6275392;22;20049;-88
2022/04/03 08:54:49;;;;;;;1.63;1.15;;;;;;;16.61;36.17;98765.00;6300924;22;20354;-88
2022/04/03 08:57:15;;;;;;;1.40;1.20;;;;;;;16.12;36.35;98705.09;6274348;22;19999;-87
2022/04/03 08:59:40;;;;;;;1.67;1.05;;;;;;;15.71;36.22;98682.91;6274208;22;19999;-88
2022/04/03 09:02:07;;;;;;;2.45;1.23;;;;;;;15.73;36.45;98702.09;6273977;22;20445;-89
2022/04/03 09:04:32;;;;;;;2.95;1.88;;;;;;;15.48;36.51;98688.97;6274470;22;20086;-87
2022/04/03 09:07:00;;;;;;;1.98;1.42;;;;;;;15.31;36.72;98703.19;6274694;22;20031;-88
2022/04/03 09:09:27;;;;;;;1.60;1.13;;;;;;;15.82;36.81;98774.44;6274265;22;20384;-88
2022/04/03 09:12:18;;;;;;;1.90;1.33;;;;;;;15.86;36.31;98775.59;6275895;22;20047;-87
2022/04/03 09:14:54;;;;;;;1.60;1.50;;;;;;;15.86;37.08;98775.59;6274422;22;20061;-88
2022/04/03 09:17:42;;;;;;;2.03;1.20;;;;;;;15.79;35.83;98717.16;6276006;22;19995;-88
2022/04/03 09:20:12;;;;;;;1.58;1.48;;;;;;;16.34;35.85;98766.53;6274101;22;20000;-87
2022/04/03 09:22:39;;;;;;;1.40;1.00;;;;;;;15.75;35.61;98665.44;6273891;22;19999;-87
2022/04/03 09:25:13;;;;;;;1.50;1.00;;;;;;;16.85;34.33;98744.44;6300260;22;20533;-88
2022/04/03 09:27:58;;;;;;;1.95;1.10;;;;;;;17.44;33.28;98774.34;6275151;22;20000;-89
2022/04/03 09:30:39;;;;;;;1.73;1.10;;;;;;;17.59;31.69;98745.22;6274027;22;20065;-87
2022/04/03 09:33:09;;;;;;;1.63;1.00;;;;;;;17.72;31.57;98709.41;6274536;22;20003;-89
2022/04/03 09:35:59;;;;;;;2.80;1.17;;;;;;;18.10;29.92;98768.22;6274349;22;19999;-89
2022/04/03 09:38:29;;;;;;;3.42;1.10;;;;;;;17.33;31.44;98703.97;6274779;22;20014;-89
2022/04/03 09:40:55;;;;;;;2.40;1.00;;;;;;;16.67;31.35;98662.81;6274168;22;20079;-89
2022/04/03 09:43:27;;;;;;;3.83;1.13;;;;;;;17.16;30.90;98783.19;6273811;22;20023;-89
2022/04/03 09:46:01;;;;;;;3.83;0.90;;;;;;;16.91;32.03;98801.34;6274449;22;20008;-89
2022/04/03 09:48:34;;;;;;;2.33;0.80;;;;;;;15.99;32.29;98686.69;6273815;22;20399;-89
2022/04/03 09:51:19;;;;;;;0.93;0.70;;;;;;;16.44;32.49;98798.75;6274067;22;20032;-88
2022/04/03 09:54:02;;;;;;;2.95;1.80;;;;;;;16.14;31.42;98698.47;6272487;22;20049;-89
2022/04/03 09:56:33;;;;;;;2.20;1.02;;;;;;;16.58;31.24;98706.03;6273768;22;20019;-89
2022/04/03 09:59:07;;;;;;;1.90;1.27;;;;;;;17.37;29.17;98702.44;6273665;22;20061;-88
2022/04/03 10:01:41;;;;;;;1.15;0.80;;;;;;;18.15;29.55;98801.41;6273653;22;20016;-89
2022/04/03 10:04:13;;;;;;;4.38;2.17;;;;;;;17.97;29.28;98795.28;6274109;22;20061;-89
2022/04/03 10:06:39;;;;;;;4.35;2.88;;;;;;;17.17;30.15;98695.97;6273831;22;20003;-86
2022/04/03 10:09:07;;;;;;;3.50;2.13;;;;;;;16.52;30.23;98633.19;6273692;22;20083;-88
2022/04/03 10:11:33;;;;;;;4.93;3.80;;;;;;;17.42;30.26;98712.38;6299845;22;20010;-87
2022/04/03 10:13:58;;;;;;;3.78;2.53;;;;;;;18.28;30.14;98785.84;6275695;22;19995;-90
2022/04/03 10:16:24;;;;;;;2.13;1.48;;;;;;;18.18;29.35;98686.84;6274247;22;20065;-86
2022/04/03 10:18:51;;;;;;;2.05;1.50;;;;;;;18.99;28.70;98719.88;6274018;22;20353;-87
2022/04/03 10:21:40;;;;;;;2.53;1.30;;;;;;;19.36;27.27;98725.34;6273917;22;20432;-87
2022/04/03 10:24:23;;;;;;;1.40;1.00;;;;;;;19.32;27.37;98664.50;6273285;22;20038;-87
2022/04/03 10:27:12;;;;;;;2.65;1.65;;;;;;;20.37;25.69;98785.28;6273398;22;19999;-88
2022/04/03 10:29:40;;;;;;;1.70;1.45;;;;;;;19.79;26.54;98686.06;6273216;22;20004;-88
2022/04/03 10:32:06;;;;;;;1.42;1.17;;;;;;;20.81;26.69;98807.28;6273249;22;19996;-87
2022/04/03 10:34:56;;;;;;;1.70;1.20;;;;;;;20.90;25.87;98801.16;6273487;22;20027;-89
2022/04/03 10:37:36;;;;;;;1.13;1.02;;;;;;;21.00;26.28;98796.88;6272768;22;20074;-87
2022/04/03 10:40:23;;;;;;;1.27;0.93;;;;;;;20.90;25.71;98766.25;6273796;22;19996;-86
2022/04/03 10:43:03;;;;;;;4.45;2.72;;;;;;;20.51;25.75;98706.81;6274834;22;20053;-88
2022/04/03 10:45:34;;;;;;;2.58;1.48;;;;;;;21.27;25.44;98813.63;6274822;22;20030;-86
2022/04/03 10:48:27;;;;;;;1.52;0.65;;;;;;;21.25;25.23;98789.72;6273422;22;20407;-87
2022/04/03 10:51:02;;;;;;;1.27;1.17;;;;;;;21.46;25.57;98795.94;6268072;22;20433;-86
2022/04/03 10:53:33;;;;;;;1.88;0.80;;;;;;;21.40;25.36;98772.03;6273509;22;20348;-88
2022/04/03 10:56:02;;;;;;;1.90;0.90;;;;;;;21.13;24.30;98727.41;6275347;22;20061;-87
2022/04/03 10:58:46;;;;;;;0.93;0.80;;;;;;;21.88;24.40;98789.53;6273232;22;20007;-88
2022/04/03 11:01:31;;;;;;;1.38;0.80;;;;;;;22.14;23.98;98783.06;6274848;22;20012;-87
2022/04/03 11:04:13;;;;;;;0.77;0.55;;;;;;;21.91;24.77;98740.59;6273740;22;20480;-87
2022/04/03 11:06:43;;;;;;;1.10;0.70;;;;;;;22.44;24.75;98802.94;6299219;22;20433;-87
2022/04/03 11:09:13;;;;;;;1.25;0.73;;;;;;;21.90;24.40;98701.38;6273088;22;19995;-87
2022/04/03 11:11:53;;;;;;;1.00;0.90;;;;;;;22.67;24.32;98791.53;6272812;22;20004;-87
2022/04/03 11:14:52;;;;;;;1.60;0.63;;;;;;;22.78;23.45;98803.06;6274292;22;20071;-87
2022/04/03 11:17:20;;;;;;;3.03;0.75;;;;;;;21.88;23.56;98709.69;6274768;22;19996;-87
2022/04/03 11:19:47;;;;;;;2.70;1.10;;;;;;;22.63;22.98;98811.22;6272995;22;20088;-87
2022/04/03 11:22:18;;;;;;;3.72;1.10;;;;;;;22.71;22.80;98803.38;6272945;22;20007;-86
2022/04/03 11:24:44;;;;;;;1.13;0.67;;;;;;;22.20;22.63;98773.09;6273753;22;20018;-88
2022/04/03 11:27:10;;;;;;;0.80;0.60;;;;;;;22.01;22.57;98739.78;6275316;22;20059;-87
2022/04/03 11:29:36;;;;;;;1.23;0.90;;;;;;;21.19;22.22;98586.72;6273605;22;20087;-87
2022/04/03 11:32:07;;;;;;;2.65;1.40;;;;;;;21.72;22.46;98710.00;6273487;22;20019;-88
2022/04/03 11:34:33;;;;;;;2.72;1.30;;;;;;;22.10;22.10;98800.81;6273941;22;20012;-86